createdAt,value
2023-05-26T00:00:25.532Z,68.62
2023-05-26T00:02:52.893Z,68.94
2023-05-26T00:05:21.460Z,69.63
2023-05-26T00:07:49.006Z,69.54
2023-05-26T00:10:16.226Z,70.24
2023-05-26T00:12:43.444Z,70.18
2023-05-26T00:15:10.900Z,70.43
2023-05-26T00:17:38.291Z,70.72
2023-05-26T00:20:08.770Z,71.11
2023-05-26T00:22:36.337Z,71.35
2023-05-26T00:25:04.470Z,71.88
2023-05-26T00:27:31.822Z,72.35
2023-05-26T00:29:59.338Z,72.36
2023-05-26T00:32:26.953Z,72.73
2023-05-26T00:34:54.262Z,72.86
2023-05-26T00:37:23.429Z,73.44
2023-05-26T00:39:50.638Z,73.70
2023-05-26T00:42:18.577Z,73.98
2023-05-26T00:44:45.756Z,74.32
2023-05-26T00:47:12.984Z,74.68
2023-05-26T00:49:40.268Z,74.99
2023-05-26T00:52:08.196Z,75.06
2023-05-26T00:54:36.267Z,75.43
2023-05-26T00:57:04.763Z,75.95
2023-05-26T00:59:32.448Z,76.39
2023-05-26T01:02:01.090Z,76.58
2023-05-26T01:04:28.263Z,76.92
2023-05-26T01:06:56.481Z,77.33
2023-05-26T01:09:24.080Z,77.75
2023-05-26T01:11:54.210Z,77.85
2023-05-26T01:14:32.257Z,78.05
2023-05-26T01:17:08.568Z,78.43
2023-05-26T01:19:53.386Z,78.73
2023-05-26T01:22:23.867Z,78.86
2023-05-26T01:25:07.665Z,79.16
2023-05-26T01:28:04.029Z,79.35
2023-05-26T01:30:32.623Z,79.83
2023-05-26T01:32:59.906Z,80.01
2023-05-26T01:35:27.210Z,80.16
2023-05-26T01:37:55.160Z,80.55
2023-05-26T01:40:22.966Z,80.47
2023-05-26T01:43:03.194Z,81.13
2023-05-26T01:45:43.284Z,81.30
2023-05-26T01:48:11.293Z,81.25
2023-05-26T01:50:48.782Z,81.89
2023-05-26T01:53:19.317Z,81.92
2023-05-26T01:55:47.315Z,82.07
2023-05-26T01:58:15.330Z,82.20
2023-05-26T02:00:48.907Z,82.08
2023-05-26T02:03:16.911Z,82.45
2023-05-26T02:05:44.654Z,82.32
2023-05-26T02:08:12.509Z,82.35
2023-05-26T02:10:40.422Z,82.60
2023-05-26T02:13:08.003Z,82.42
2023-05-26T02:15:35.581Z,82.77
2023-05-26T02:18:04.188Z,82.76
2023-05-26T02:20:31.808Z,83.23
2023-05-26T02:22:59.059Z,83.85
2023-05-26T02:25:26.260Z,83.56
2023-05-26T02:27:53.525Z,84.00
2023-05-26T02:30:21.262Z,84.14
2023-05-26T02:32:48.737Z,83.99
2023-05-26T02:35:15.953Z,83.94
2023-05-26T02:37:43.197Z,84.51
2023-05-26T02:40:11.124Z,84.83
2023-05-26T02:42:38.372Z,85.33
2023-05-26T02:45:06.190Z,85.32
2023-05-26T02:47:33.430Z,85.30
2023-05-26T02:50:00.717Z,85.89
2023-05-26T02:52:28.326Z,85.96
2023-05-26T02:54:55.593Z,86.07
2023-05-26T02:57:23.454Z,86.34
2023-05-26T02:59:50.586Z,86.11
2023-05-26T03:02:17.844Z,86.47
2023-05-26T03:04:45.026Z,86.21
2023-05-26T03:07:12.198Z,86.47
2023-05-26T03:09:39.428Z,86.65
2023-05-26T03:12:08.040Z,86.55
2023-05-26T03:14:35.429Z,86.20
2023-05-26T03:17:02.826Z,86.81
2023-05-26T03:19:30.151Z,87.02
2023-05-26T03:22:37.598Z,86.94
2023-05-26T03:24:44.732Z,86.60
2023-05-26T03:27:11.898Z,86.57
2023-05-26T03:29:39.061Z,86.98
2023-05-26T03:32:06.406Z,87.28
2023-05-26T03:34:34.205Z,86.56
2023-05-26T03:37:02.079Z,86.37
2023-05-26T03:39:29.238Z,86.51
2023-05-26T03:41:56.492Z,86.39
2023-05-26T03:44:24.321Z,86.55
2023-05-26T03:46:51.629Z,86.51
2023-05-26T03:49:20.925Z,86.50
2023-05-26T03:51:48.205Z,86.55
2023-05-26T03:54:15.351Z,86.29
2023-05-26T03:56:42.591Z,86.85
2023-05-26T03:59:10.117Z,86.28
2023-05-26T04:01:38.274Z,85.81
2023-05-26T04:04:05.700Z,86.12
2023-05-26T04:06:32.982Z,85.86
2023-05-26T04:09:01.695Z,85.33
2023-05-26T04:11:28.959Z,85.27
2023-05-26T04:13:56.270Z,85.02
2023-05-26T04:16:23.505Z,85.25
2023-05-26T04:18:50.858Z,84.94
2023-05-26T04:21:18.058Z,84.72
2023-05-26T04:23:48.491Z,84.71
2023-05-26T04:26:17.383Z,84.19
2023-05-26T04:28:45.243Z,84.44
2023-05-26T04:31:17.886Z,84.55
2023-05-26T04:33:46.074Z,84.24
2023-05-26T04:36:17.560Z,84.16
2023-05-26T04:38:48.941Z,84.16
2023-05-26T04:41:16.464Z,83.90
2023-05-26T04:43:44.571Z,83.99
2023-05-26T04:46:12.471Z,83.55
2023-05-26T04:48:59.777Z,83.56
2023-05-26T04:51:27.293Z,83.31
2023-05-26T04:53:54.413Z,83.57
2023-05-26T04:56:22.861Z,82.90
2023-05-26T04:58:50.082Z,82.61
2023-05-26T05:01:18.738Z,82.15
2023-05-26T05:03:46.165Z,81.78
2023-05-26T05:06:13.430Z,81.54
2023-05-26T05:08:40.576Z,81.34
2023-05-26T05:11:08.656Z,80.84
2023-05-26T05:13:35.832Z,80.69
2023-05-26T05:16:03.091Z,80.27
2023-05-26T05:18:30.263Z,80.58
2023-05-26T05:20:57.682Z,80.49
2023-05-26T05:23:25.141Z,79.86
2023-05-26T05:25:53.813Z,79.64
2023-05-26T05:28:20.965Z,79.09
2023-05-26T05:30:48.345Z,79.23
2023-05-26T05:33:15.870Z,78.80
2023-05-26T05:35:43.306Z,78.48
2023-05-26T05:38:10.687Z,77.93
2023-05-26T05:40:37.952Z,77.55
2023-05-26T05:43:05.458Z,77.46
2023-05-26T05:45:32.817Z,76.78
2023-05-26T05:48:00.218Z,75.67
2023-05-26T05:50:27.452Z,76.03
2023-05-26T05:52:54.632Z,75.35
2023-05-26T05:55:21.845Z,75.53
2023-05-26T05:57:49.767Z,75.43
2023-05-26T06:00:17.380Z,74.88
2023-05-26T06:02:44.703Z,75.32
2023-05-26T06:05:14.314Z,75.13
2023-05-26T06:07:41.497Z,74.27
2023-05-26T06:10:09.284Z,74.43
2023-05-26T06:12:36.462Z,74.03
2023-05-26T06:15:03.824Z,73.39
2023-05-26T06:17:31.626Z,73.03
2023-05-26T06:19:59.048Z,72.99
2023-05-26T06:22:26.214Z,72.15
2023-05-26T06:24:53.407Z,71.84
2023-05-26T06:27:20.564Z,71.53
2023-05-26T06:29:47.771Z,70.16
2023-05-26T06:32:15.040Z,69.98
2023-05-26T06:34:42.222Z,69.26
2023-05-26T06:37:09.489Z,68.76
2023-05-26T06:39:36.651Z,68.23
2023-05-26T06:42:04.110Z,67.62
2023-05-26T06:44:31.279Z,67.55
2023-05-26T06:46:58.469Z,66.57
2023-05-26T06:49:25.596Z,65.92
2023-05-26T06:51:52.866Z,66.02
2023-05-26T06:54:19.996Z,65.39
2023-05-26T06:56:47.179Z,64.80
2023-05-26T06:59:14.326Z,63.96
2023-05-26T07:01:41.645Z,63.79
2023-05-26T07:04:08.964Z,63.71
2023-05-26T07:06:46.761Z,63.62
2023-05-26T07:09:14.876Z,63.01
2023-05-26T07:11:42.085Z,62.60
2023-05-26T07:14:09.354Z,61.96
2023-05-26T07:16:36.559Z,61.48
2023-05-26T07:19:03.777Z,61.14
2023-05-26T07:21:32.154Z,60.98
2023-05-26T07:23:59.590Z,60.42
2023-05-26T07:26:26.749Z,59.01
2023-05-26T07:28:54.400Z,58.48
2023-05-26T07:31:22.546Z,57.97
2023-05-26T07:33:51.173Z,57.26
2023-05-26T07:36:18.463Z,57.43
2023-05-26T07:38:45.886Z,57.55
2023-05-26T07:41:13.074Z,57.21
2023-05-26T07:43:40.367Z,56.91
2023-05-26T07:46:07.595Z,57.07
2023-05-26T07:48:34.899Z,56.87
2023-05-26T07:51:02.032Z,55.88
2023-05-26T07:53:29.181Z,53.98
2023-05-26T07:55:56.339Z,54.71
2023-05-26T07:58:23.464Z,54.31
2023-05-26T08:00:50.609Z,54.47
2023-05-26T08:03:18.020Z,54.43
2023-05-26T08:05:45.736Z,52.41
2023-05-26T08:08:13.062Z,52.79
2023-05-26T08:10:40.329Z,53.13
2023-05-26T08:13:07.500Z,53.17
2023-05-26T08:15:35.657Z,52.98
2023-05-26T08:18:03.156Z,53.23
2023-05-26T08:20:30.542Z,52.73
2023-05-26T08:22:59.506Z,51.96
2023-05-26T08:25:27.389Z,52.57
2023-05-26T08:27:54.627Z,51.75
2023-05-26T08:30:21.780Z,48.44
2023-05-26T08:32:49.253Z,49.13
2023-05-26T08:35:16.402Z,48.47
2023-05-26T08:37:43.822Z,48.08
2023-05-26T08:40:12.834Z,48.42
2023-05-26T08:42:45.741Z,48.38
2023-05-26T08:45:13.771Z,48.45
2023-05-26T08:47:43.790Z,47.87
2023-05-26T08:50:12.186Z,48.17
2023-05-26T08:52:45.617Z,47.64
2023-05-26T08:55:18.266Z,47.02
2023-05-26T08:57:45.930Z,47.19
2023-05-26T09:00:13.972Z,47.90
2023-05-26T09:02:41.434Z,47.37
2023-05-26T09:05:09.518Z,47.58
2023-05-26T09:07:36.734Z,46.16
2023-05-26T09:10:22.799Z,46.63
2023-05-26T09:12:49.959Z,45.29
2023-05-26T09:15:21.431Z,46.33
2023-05-26T09:17:49.549Z,45.39
2023-05-26T09:20:16.963Z,44.53
2023-05-26T09:22:45.523Z,44.77
2023-05-26T09:25:12.796Z,44.58
2023-05-26T09:27:39.946Z,44.62
2023-05-26T09:30:07.795Z,44.55
2023-05-26T09:32:36.052Z,45.72
2023-05-26T09:35:04.416Z,45.34
2023-05-26T09:37:33.250Z,42.52
2023-05-26T09:40:15.710Z,43.08
2023-05-26T09:42:53.068Z,42.42
2023-05-26T09:45:20.651Z,42.56
2023-05-26T09:47:56.513Z,42.25
2023-05-26T09:50:25.333Z,41.68
2023-05-26T09:52:52.537Z,40.97
2023-05-26T09:55:19.849Z,41.70
2023-05-26T09:57:47.478Z,42.22
2023-05-26T10:00:17.434Z,41.63
2023-05-26T10:02:46.522Z,41.48
2023-05-26T10:05:15.034Z,40.78
2023-05-26T10:07:43.189Z,40.30
2023-05-26T10:10:14.773Z,39.75
2023-05-26T10:12:43.234Z,39.59
2023-05-26T10:15:11.211Z,40.21
2023-05-26T10:17:40.345Z,39.36
2023-05-26T10:20:09.776Z,39.29
2023-05-26T10:22:51.698Z,39.07
2023-05-26T10:25:27.376Z,39.80
2023-05-26T10:28:00.308Z,41.08
2023-05-26T10:30:28.118Z,40.68
2023-05-26T10:33:09.521Z,40.16
2023-05-26T10:35:36.946Z,38.43
2023-05-26T10:38:04.131Z,38.69
2023-05-26T10:40:31.292Z,38.01
2023-05-26T10:43:03.569Z,38.01
2023-05-26T10:45:32.645Z,37.22
2023-05-26T10:48:12.460Z,37.20
2023-05-26T10:50:59.377Z,37.23
2023-05-26T10:53:31.370Z,37.41
2023-05-26T10:56:00.276Z,35.71
2023-05-26T10:58:34.560Z,36.23
2023-05-26T11:01:04.308Z,34.72
2023-05-26T11:03:45.553Z,34.57
2023-05-26T11:06:15.400Z,35.20
2023-05-26T11:08:46.391Z,35.99
2023-05-26T11:11:18.362Z,36.22
2023-05-26T11:13:47.683Z,35.90
2023-05-26T11:16:18.792Z,36.53
2023-05-26T11:18:53.904Z,36.06
2023-05-26T11:21:28.276Z,33.54
2023-05-26T11:23:57.462Z,33.02
2023-05-26T11:26:26.468Z,33.42
2023-05-26T11:28:54.061Z,31.15
2023-05-26T11:31:26.880Z,30.72
2023-05-26T11:33:55.705Z,30.38
2023-05-26T11:36:23.431Z,29.37
2023-05-26T11:38:57.880Z,29.46
2023-05-26T11:41:28.497Z,28.94
2023-05-26T11:43:57.342Z,29.17
2023-05-26T11:46:28.590Z,27.40
2023-05-26T11:48:56.043Z,25.39
2023-05-26T11:51:23.303Z,25.72
2023-05-26T11:53:57.665Z,25.73
2023-05-26T11:56:36.541Z,25.99
2023-05-26T11:59:05.064Z,26.42
2023-05-26T12:01:33.589Z,26.48
2023-05-26T12:04:01.955Z,26.76
2023-05-26T12:06:30.714Z,26.40
2023-05-26T12:09:05.119Z,24.09
2023-05-26T12:11:34.323Z,25.70
2023-05-26T12:14:12.464Z,24.20
2023-05-26T12:16:43.266Z,25.77
2023-05-26T12:19:12.504Z,24.49
2023-05-26T12:21:42.065Z,24.99
2023-05-26T12:24:09.813Z,24.86
2023-05-26T12:26:37.342Z,24.93
2023-05-26T12:29:08.172Z,23.77
2023-05-26T12:31:39.210Z,22.49
2023-05-26T12:34:07.650Z,23.21
2023-05-26T12:36:35.194Z,23.39
2023-05-26T12:39:02.426Z,23.41
2023-05-26T12:41:29.689Z,24.19
2023-05-26T12:43:56.835Z,22.43
2023-05-26T12:46:25.396Z,22.66
2023-05-26T12:48:53.898Z,23.36
2023-05-26T12:51:22.156Z,24.07
2023-05-26T12:53:49.386Z,21.88
2023-05-26T12:56:17.325Z,21.55
2023-05-26T12:58:44.644Z,21.92
2023-05-26T13:01:12.475Z,23.15
2023-05-26T13:03:41.888Z,22.51
2023-05-26T13:06:10.090Z,22.97
2023-05-26T13:08:37.399Z,22.28
2023-05-26T13:11:04.647Z,23.00
2023-05-26T13:13:32.278Z,21.04
2023-05-26T13:16:03.020Z,20.79
2023-05-26T13:18:34.193Z,21.93
2023-05-26T13:21:01.232Z,21.47
2023-05-26T13:23:28.384Z,22.10
2023-05-26T13:25:55.610Z,22.50
2023-05-26T13:28:23.928Z,22.25
2023-05-26T13:30:51.166Z,22.28
2023-05-26T13:33:18.429Z,20.64
2023-05-26T13:35:45.752Z,20.81
2023-05-26T13:38:12.946Z,19.93
2023-05-26T13:40:40.958Z,20.61
2023-05-26T13:43:09.487Z,20.72
2023-05-26T13:45:37.080Z,20.95
2023-05-26T13:48:05.478Z,21.33
2023-05-26T13:50:32.742Z,21.70
2023-05-26T13:52:59.865Z,21.10
2023-05-26T13:55:27.350Z,21.10
2023-05-26T13:57:54.773Z,20.45
2023-05-26T14:00:22.008Z,20.14
2023-05-26T14:02:51.099Z,20.42
2023-05-26T14:05:19.876Z,20.29
2023-05-26T14:07:47.232Z,19.08
2023-05-26T14:10:15.910Z,19.40
2023-05-26T14:12:43.352Z,18.41
2023-05-26T14:15:11.210Z,18.66
2023-05-26T14:17:38.660Z,18.74
2023-05-26T14:20:08.009Z,18.90
2023-05-26T14:22:38.322Z,18.29
2023-05-26T14:25:06.140Z,18.57
2023-05-26T14:27:33.461Z,17.23
2023-05-26T14:30:00.757Z,16.86
2023-05-26T14:32:27.962Z,15.79
2023-05-26T14:34:55.264Z,14.13
2023-05-26T14:37:22.560Z,13.89
2023-05-26T14:39:49.742Z,13.09
2023-05-26T14:42:17.076Z,12.26
2023-05-26T14:44:44.261Z,11.86
2023-05-26T14:47:11.549Z,11.42
2023-05-26T14:49:38.708Z,10.44
2023-05-26T14:52:06.464Z,8.84
2023-05-26T14:54:33.800Z,9.62
2023-05-26T14:57:01.609Z,9.56
2023-05-26T14:59:28.918Z,8.79
2023-05-26T15:01:56.214Z,8.45
2023-05-26T15:04:23.464Z,8.17
2023-05-26T15:06:51.472Z,8.06
2023-05-26T15:09:18.672Z,8.50
2023-05-26T15:11:46.061Z,7.79
2023-05-26T15:14:13.297Z,8.44
2023-05-26T15:16:40.635Z,7.74
2023-05-26T15:19:07.964Z,7.57
2023-05-26T15:21:38.723Z,7.26
2023-05-26T15:24:08.035Z,7.20
2023-05-26T15:26:35.894Z,7.22
2023-05-26T15:29:03.149Z,8.19
2023-05-26T15:31:30.463Z,7.50
2023-05-26T15:33:57.711Z,7.12
2023-05-26T15:36:25.963Z,7.07
2023-05-26T15:38:57.839Z,6.44
2023-05-26T15:41:29.048Z,6.61
2023-05-26T15:43:57.045Z,6.33
2023-05-26T15:46:24.233Z,6.52
2023-05-26T15:48:51.568Z,7.39
2023-05-26T15:51:18.782Z,7.25
2023-05-26T15:53:46.029Z,6.72
2023-05-26T15:56:13.242Z,6.72
2023-05-26T15:58:40.827Z,6.92
2023-05-26T16:01:08.481Z,7.36
2023-05-26T16:03:39.121Z,7.66
2023-05-26T16:06:08.112Z,7.37
2023-05-26T16:08:37.779Z,7.47
2023-05-26T16:11:05.237Z,8.00
2023-05-26T16:13:33.530Z,7.48
2023-05-26T16:16:00.785Z,7.34
2023-05-26T16:18:28.081Z,7.10
2023-05-26T16:20:55.386Z,7.37
2023-05-26T16:23:22.921Z,7.76
2023-05-26T16:25:52.725Z,9.23
2023-05-26T16:28:20.796Z,11.25
2023-05-26T16:30:48.420Z,12.89
2023-05-26T16:33:17.394Z,14.79
2023-05-26T16:35:47.156Z,16.46
2023-05-26T16:38:14.391Z,18.25
2023-05-26T16:40:41.619Z,19.22
2023-05-26T16:43:11.676Z,19.96
2023-05-26T16:45:38.926Z,21.03
2023-05-26T16:48:06.278Z,21.75
2023-05-26T16:50:33.476Z,22.21
2023-05-26T16:53:00.716Z,23.16
2023-05-26T16:55:27.863Z,23.42
2023-05-26T16:57:55.068Z,23.67
2023-05-26T17:00:22.331Z,24.09
2023-05-26T17:02:49.607Z,25.11
2023-05-26T17:05:17.169Z,25.79
2023-05-26T17:07:44.468Z,26.29
2023-05-26T17:10:11.813Z,26.85
2023-05-26T17:12:39.121Z,27.06
2023-05-26T17:15:07.852Z,27.08
2023-05-26T17:17:35.217Z,27.55
2023-05-26T17:20:03.208Z,28.46
2023-05-26T17:22:30.798Z,29.14
2023-05-26T17:24:58.100Z,29.34
2023-05-26T17:27:25.412Z,29.61
2023-05-26T17:29:52.675Z,29.77
2023-05-26T17:32:20.009Z,31.32
2023-05-26T17:34:47.841Z,31.47
2023-05-26T17:37:15.297Z,31.59
2023-05-26T17:39:43.228Z,32.08
2023-05-26T17:42:10.841Z,32.48
2023-05-26T17:44:38.109Z,33.22
2023-05-26T17:47:06.023Z,33.47
2023-05-26T17:49:33.525Z,33.66
2023-05-26T17:52:00.997Z,34.82
2023-05-26T17:54:29.943Z,34.83
2023-05-26T17:56:57.934Z,35.30
2023-05-26T17:59:25.781Z,35.30
2023-05-26T18:01:53.368Z,35.64
2023-05-26T18:04:20.969Z,35.78
2023-05-26T18:06:48.307Z,35.83
2023-05-26T18:09:16.910Z,36.24
2023-05-26T18:11:45.213Z,36.48
2023-05-26T18:14:13.024Z,36.79
2023-05-26T18:16:40.997Z,36.78
2023-05-26T18:19:08.753Z,37.92
2023-05-26T18:21:39.190Z,38.30
2023-05-26T18:24:06.921Z,38.81
2023-05-26T18:26:34.424Z,38.72
2023-05-26T18:29:01.815Z,39.27
2023-05-26T18:31:30.038Z,39.57
2023-05-26T18:34:00.443Z,40.05
2023-05-26T18:36:32.752Z,40.46
2023-05-26T18:39:00.041Z,41.04
2023-05-26T18:41:27.636Z,41.51
2023-05-26T18:43:54.878Z,41.61
2023-05-26T18:46:22.300Z,42.67
2023-05-26T18:48:49.546Z,42.96
2023-05-26T18:51:17.771Z,43.26
2023-05-26T18:53:44.976Z,43.29
2023-05-26T18:56:12.838Z,43.53
2023-05-26T18:58:40.154Z,43.64
2023-05-26T19:01:07.500Z,44.19
2023-05-26T19:03:36.301Z,44.87
2023-05-26T19:06:03.666Z,44.79
2023-05-26T19:08:30.913Z,44.93
2023-05-26T19:10:59.496Z,45.28
2023-05-26T19:13:26.827Z,45.54
2023-05-26T19:15:54.170Z,45.59
2023-05-26T19:18:22.587Z,46.18
2023-05-26T19:20:50.168Z,46.50
2023-05-26T19:23:17.449Z,46.70
2023-05-26T19:25:44.650Z,47.40
2023-05-26T19:28:17.206Z,47.14
2023-05-26T19:30:46.029Z,47.95
2023-05-26T19:33:13.488Z,48.32
2023-05-26T19:35:40.711Z,48.48
2023-05-26T19:38:07.915Z,48.73
2023-05-26T19:40:36.413Z,49.01
2023-05-26T19:43:03.730Z,49.35
2023-05-26T19:45:31.192Z,49.32
2023-05-26T19:47:58.575Z,49.13
2023-05-26T19:50:25.999Z,49.77
2023-05-26T19:52:54.629Z,49.98
2023-05-26T19:55:22.837Z,50.22
2023-05-26T19:57:50.183Z,50.41
2023-05-26T20:00:17.535Z,50.52
2023-05-26T20:02:44.902Z,50.53
2023-05-26T20:05:12.174Z,50.98
2023-05-26T20:07:39.420Z,50.79
2023-05-26T20:10:06.818Z,51.40
2023-05-26T20:12:34.143Z,51.72
2023-05-26T20:15:01.737Z,51.82
2023-05-26T20:17:28.947Z,51.36
2023-05-26T20:20:11.651Z,51.33
2023-05-26T20:22:40.674Z,51.48
2023-05-26T20:25:08.482Z,51.76
2023-05-26T20:27:38.994Z,52.19
2023-05-26T20:30:07.746Z,52.13
2023-05-26T20:32:35.837Z,52.47
2023-05-26T20:35:03.814Z,52.66
2023-05-26T20:37:31.536Z,52.68
2023-05-26T20:39:59.797Z,53.05
2023-05-26T20:42:30.859Z,53.26
2023-05-26T20:44:58.184Z,53.77
2023-05-26T20:47:26.124Z,54.55
2023-05-26T20:49:53.589Z,54.43
2023-05-26T20:52:21.592Z,54.56
2023-05-26T20:54:48.799Z,54.94
2023-05-26T20:57:16.114Z,55.40
2023-05-26T20:59:43.534Z,55.64
2023-05-26T21:02:11.006Z,55.69
2023-05-26T21:04:38.304Z,55.87
2023-05-26T21:07:05.480Z,56.19
2023-05-26T21:09:32.965Z,56.25
2023-05-26T21:12:00.222Z,56.20
2023-05-26T21:14:27.801Z,56.28
2023-05-26T21:16:55.123Z,56.62
2023-05-26T21:19:22.446Z,56.69
2023-05-26T21:21:51.081Z,56.91
2023-05-26T21:24:18.518Z,56.66
2023-05-26T21:26:45.951Z,57.37
2023-05-26T21:29:13.386Z,57.69
2023-05-26T21:31:40.828Z,57.36
2023-05-26T21:34:08.180Z,57.74
2023-05-26T21:36:36.683Z,57.66
2023-05-26T21:39:05.124Z,57.57
2023-05-26T21:41:32.602Z,57.75
2023-05-26T21:43:59.825Z,58.13
2023-05-26T21:46:27.107Z,58.09
2023-05-26T21:48:54.597Z,58.32
2023-05-26T21:51:21.839Z,58.01
2023-05-26T21:53:49.075Z,57.88
2023-05-26T21:56:16.335Z,58.32
2023-05-26T21:58:44.838Z,59.06
2023-05-26T22:01:12.468Z,59.34
2023-05-26T22:03:39.860Z,59.40
2023-05-26T22:06:08.517Z,59.27
2023-05-26T22:08:35.793Z,59.21
2023-05-26T22:11:02.976Z,59.20
2023-05-26T22:13:30.798Z,60.09
2023-05-26T22:15:58.298Z,60.32
2023-05-26T22:18:26.019Z,60.40
2023-05-26T22:20:53.173Z,60.09
2023-05-26T22:23:20.370Z,61.07
2023-05-26T22:25:47.642Z,61.12
2023-05-26T22:28:14.949Z,61.60
2023-05-26T22:30:42.166Z,61.69
2023-05-26T22:33:09.401Z,61.64
2023-05-26T22:35:36.677Z,61.99
2023-05-26T22:38:03.911Z,62.27
2023-05-26T22:40:31.147Z,62.84
2023-05-26T22:42:58.301Z,63.08
2023-05-26T22:45:25.596Z,63.24
2023-05-26T22:47:52.814Z,63.35
2023-05-26T22:50:22.103Z,63.66
2023-05-26T22:52:49.306Z,63.60
2023-05-26T22:55:16.434Z,63.82
2023-05-26T22:57:43.757Z,64.25
2023-05-26T23:00:11.496Z,64.59
2023-05-26T23:02:38.798Z,64.95
2023-05-26T23:05:07.149Z,65.25
2023-05-26T23:07:35.930Z,64.69
2023-05-26T23:10:04.107Z,65.12
2023-05-26T23:12:31.246Z,65.30
2023-05-26T23:14:58.532Z,65.34
2023-05-26T23:17:25.792Z,65.61
2023-05-26T23:19:53.020Z,65.88
2023-05-26T23:22:20.266Z,66.28
2023-05-26T23:24:47.463Z,66.91
2023-05-26T23:27:14.650Z,67.26
2023-05-26T23:29:41.935Z,67.57
2023-05-26T23:32:09.163Z,67.61
2023-05-26T23:34:36.363Z,67.94
2023-05-26T23:37:03.618Z,68.29
2023-05-26T23:39:30.936Z,68.17
2023-05-26T23:41:58.089Z,68.73
2023-05-26T23:44:25.345Z,69.15
2023-05-26T23:46:52.603Z,69.39
2023-05-26T23:49:20.085Z,69.60
2023-05-26T23:51:47.254Z,69.75
2023-05-26T23:54:14.429Z,70.27
2023-05-26T23:56:41.607Z,70.31
2023-05-26T23:59:08.842Z,70.47
